Time;durP1;ratioP1;P1;durP2;ratioP2;P2;SDS_P1;SDS_P2;PMS_P1;PMS_P2;Temp;Humidity;BMP_temperature;BMP_pressure;BME280_temperature;BME280_humidity;BME280_pressure;Samples;Min_cycle;Max_cycle;Signal;HPM_P1;HPM_P2
2022/07/21 00:00:26;;;;;;;6.37;3.27;;;;;;;19.50;55.63;99198.00;1698614;84;21035;-84
2022/07/21 00:02:56;;;;;;;9.33;3.20;;;;;;;19.42;55.56;99198.01;1697091;84;21035;-84
2022/07/21 00:05:24;;;;;;;10.85;3.22;;;;;;;19.41;55.86;99195.45;1703130;84;21082;-84
2022/07/21 00:07:52;;;;;;;7.08;3.40;;;;;;;19.37;55.12;99196.11;1701405;84;21015;-84
2022/07/21 00:10:21;;;;;;;7.45;3.20;;;;;;;19.33;55.18;99198.55;1703914;84;21051;-83
2022/07/21 00:12:48;;;;;;;5.78;3.17;;;;;;;19.30;56.38;99205.34;1690592;84;21058;-84
2022/07/21 00:15:18;;;;;;;6.35;3.37;;;;;;;19.26;56.59;99195.44;1714347;84;21017;-83
2022/07/21 00:17:45;;;;;;;8.53;3.62;;;;;;;19.22;56.96;99204.47;1679314;84;20999;-84
2022/07/21 00:20:14;;;;;;;8.08;3.83;;;;;;;19.15;58.24;99189.94;1705810;84;21039;-84
2022/07/21 00:22:41;;;;;;;7.35;3.25;;;;;;;19.08;56.95;99201.32;1733667;81;21038;-84
2022/07/21 00:25:10;;;;;;;9.15;2.95;;;;;;;18.98;59.23;99198.85;1706028;84;21059;-83
2022/07/21 00:27:37;;;;;;;8.20;3.12;;;;;;;18.96;57.86;99203.36;1733280;83;20987;-84
2022/07/21 00:30:07;;;;;;;6.75;3.33;;;;;;;18.94;58.19;99196.46;1707894;83;21000;-83
2022/07/21 00:32:34;;;;;;;6.60;2.98;;;;;;;18.94;58.34;99194.70;1727196;83;21009;-84
2022/07/21 00:35:01;;;;;;;5.75;3.08;;;;;;;18.94;58.66;99186.80;1706196;83;21082;-83
2022/07/21 00:37:29;;;;;;;7.62;3.00;;;;;;;18.91;59.49;99190.07;1715392;84;21515;-84
2022/07/21 00:39:55;;;;;;;5.85;2.77;;;;;;;18.88;60.41;99187.99;1716390;84;21070;-84
2022/07/21 00:42:28;;;;;;;8.75;3.00;;;;;;;18.85;59.63;99190.80;1716095;84;21146;-84
2022/07/21 00:44:55;;;;;;;7.25;3.10;;;;;;;18.79;59.77;99188.95;1729220;83;21093;-84
2022/07/21 00:47:29;;;;;;;6.72;3.25;;;;;;;18.76;59.56;99186.04;1721110;82;21034;-84
2022/07/21 00:49:58;;;;;;;7.60;3.02;;;;;;;18.75;59.16;99184.80;1731554;82;20999;-84
2022/07/21 00:52:25;;;;;;;6.80;3.45;;;;;;;18.76;59.44;99178.14;1720305;83;21046;-84
2022/07/21 00:54:53;;;;;;;6.40;3.17;;;;;;;18.76;58.87;99179.45;1720115;83;21069;-84
2022/07/21 00:57:20;;;;;;;8.28;3.17;;;;;;;18.73;58.05;99180.94;1720200;82;21027;-84
2022/07/21 00:59:46;;;;;;;7.60;3.40;;;;;;;18.67;59.24;99182.60;1724173;83;20962;-84
2022/07/21 01:02:13;;;;;;;7.42;3.70;;;;;;;18.68;58.21;99181.66;1720132;83;21029;-84
2022/07/21 01:04:40;;;;;;;9.28;3.90;;;;;;;18.59;58.34;99179.56;1701743;83;20994;-85
2022/07/21 01:07:07;;;;;;;7.55;4.35;;;;;;;18.51;58.77;99179.16;1695971;83;21063;-84
2022/07/21 01:09:36;;;;;;;6.92;3.20;;;;;;;18.47;58.41;99179.78;1719667;83;21012;-83
2022/07/21 01:12:03;;;;;;;7.78;3.10;;;;;;;18.40;60.09;99177.10;1718628;83;21038;-84
2022/07/21 01:14:31;;;;;;;6.28;3.60;;;;;;;18.37;58.73;99182.08;1699493;83;21406;-84
2022/07/21 01:16:58;;;;;;;10.10;3.75;;;;;;;18.34;58.58;99174.81;1708113;83;21019;-84
2022/07/21 01:19:25;;;;;;;6.87;3.22;;;;;;;18.32;60.68;99179.31;1701186;83;21046;-84
2022/07/21 01:21:52;;;;;;;8.38;3.30;;;;;;;18.32;60.93;99170.95;1710442;83;21102;-84
2022/07/21 01:24:18;;;;;;;5.85;3.40;;;;;;;18.30;60.16;99166.23;1719433;83;21042;-84
2022/07/21 01:26:49;;;;;;;5.28;3.08;;;;;;;18.25;59.54;99161.72;1722782;83;20997;-84
2022/07/21 01:29:17;;;;;;;8.10;3.10;;;;;;;18.18;61.54;99164.30;1722462;81;20995;-83
2022/07/21 01:31:46;;;;;;;7.60;3.65;;;;;;;18.15;60.63;99159.22;1730466;83;21476;-83
2022/07/21 01:34:14;;;;;;;7.08;3.20;;;;;;;18.04;63.63;99159.31;1719636;83;21014;-83
2022/07/21 01:36:41;;;;;;;5.90;3.20;;;;;;;18.00;63.99;99159.09;1719707;83;21034;-84
2022/07/21 01:41:36;;;;;;;10.15;2.98;;;;;;;17.97;62.25;99162.39;1697054;83;21065;-82
2022/07/21 01:44:10;;;;;;;7.92;3.35;;;;;;;17.95;63.56;99166.41;1708785;83;21089;-84
2022/07/21 01:46:43;;;;;;;5.67;3.17;;;;;;;17.95;62.63;99164.25;1706756;83;21050;-83
2022/07/21 01:49:12;;;;;;;5.67;3.10;;;;;;;17.90;62.12;99163.17;1703965;84;21012;-82
2022/07/21 01:51:38;;;;;;;5.85;3.30;;;;;;;17.84;63.60;99168.76;1703295;84;21455;-82
2022/07/21 01:54:07;;;;;;;8.00;3.08;;;;;;;17.81;62.51;99165.81;1703252;84;21038;-82
2022/07/21 01:56:37;;;;;;;6.25;3.17;;;;;;;17.79;63.28;99170.30;1701474;84;21019;-81
2022/07/21 01:59:04;;;;;;;5.20;3.00;;;;;;;17.77;62.19;99167.38;1703449;84;20976;-82
2022/07/21 02:01:32;;;;;;;6.50;3.12;;;;;;;17.73;63.97;99165.84;1703481;84;21495;-83
2022/07/21 02:04:02;;;;;;;6.28;3.00;;;;;;;17.70;62.03;99161.10;1702803;84;21091;-83
2022/07/21 02:06:30;;;;;;;9.50;2.90;;;;;;;17.68;62.12;99160.81;1702656;84;21094;-83
2022/07/21 02:08:56;;;;;;;6.30;3.65;;;;;;;17.62;63.68;99159.34;1703036;84;21582;-82
2022/07/21 02:11:23;;;;;;;5.72;3.27;;;;;;;17.57;63.73;99158.77;1701200;84;21031;-82
2022/07/21 02:13:50;;;;;;;9.63;3.20;;;;;;;17.54;64.25;99158.91;1706938;84;21019;-82
2022/07/21 02:16:17;;;;;;;5.45;3.02;;;;;;;17.50;63.47;99155.59;1703079;84;21051;-80
2022/07/21 02:18:44;;;;;;;7.58;3.67;;;;;;;17.48;63.79;99155.30;1703175;84;21582;-81
2022/07/21 02:21:11;;;;;;;6.65;3.20;;;;;;;17.45;64.27;99156.31;1701406;84;21062;-83
2022/07/21 02:23:38;;;;;;;6.40;2.95;;;;;;;17.45;65.43;99157.63;1703469;84;21029;-83
2022/07/21 02:26:05;;;;;;;7.97;3.08;;;;;;;17.47;64.18;99160.19;1703052;84;21022;-82
2022/07/21 02:28:31;;;;;;;5.83;3.00;;;;;;;17.46;63.89;99159.31;1697392;84;21007;-83
2022/07/21 02:30:58;;;;;;;7.25;2.85;;;;;;;17.46;63.80;99155.37;1692928;84;21014;-83
2022/07/21 02:33:24;;;;;;;7.20;2.77;;;;;;;17.48;63.98;99157.92;1707578;84;21058;-83
2022/07/21 02:35:51;;;;;;;8.75;3.65;;;;;;;17.53;64.30;99151.09;1703972;84;20979;-83
2022/07/21 02:38:17;;;;;;;6.42;3.08;;;;;;;17.54;65.38;99151.50;1703785;84;21062;-84
2022/07/21 02:40:44;;;;;;;10.68;3.35;;;;;;;17.51;65.59;99156.46;1703504;84;20992;-83
2022/07/21 02:43:11;;;;;;;7.35;3.15;;;;;;;17.46;65.75;99158.47;1691619;84;21157;-83
2022/07/21 02:45:39;;;;;;;9.03;3.90;;;;;;;17.41;64.42;99158.72;1679952;85;21047;-83
2022/07/21 02:48:10;;;;;;;10.43;3.58;;;;;;;17.39;65.04;99167.15;1690742;84;20951;-84
2022/07/21 02:50:40;;;;;;;7.22;3.17;;;;;;;17.36;64.78;99161.20;1690684;85;21001;-83
2022/07/21 02:53:11;;;;;;;13.32;3.62;;;;;;;17.28;65.01;99157.17;1672230;85;21077;-83
2022/07/21 02:55:39;;;;;;;7.55;3.50;;;;;;;17.24;64.68;99161.36;1691907;82;21344;-86
2022/07/21 02:58:14;;;;;;;13.40;3.45;;;;;;;17.16;65.03;99167.00;1666003;82;21066;-85
2022/07/21 03:00:51;;;;;;;9.88;3.42;;;;;;;17.16;65.94;99170.11;1674242;86;21117;-84
2022/07/21 03:03:19;;;;;;;9.90;3.92;;;;;;;17.18;65.12;99169.56;1702427;84;20981;-83
2022/07/21 03:05:46;;;;;;;6.72;3.25;;;;;;;17.10;66.31;99175.20;1698188;84;21051;-85
2022/07/21 03:08:13;;;;;;;9.98;3.33;;;;;;;17.09;66.31;99180.08;1689425;84;21017;-84
2022/07/21 03:10:40;;;;;;;10.08;3.17;;;;;;;17.13;65.54;99178.13;1690184;84;21067;-83
2022/07/21 03:13:07;;;;;;;7.75;3.20;;;;;;;17.15;66.02;99181.08;1688991;84;20998;-84
2022/07/21 03:15:34;;;;;;;8.88;3.08;;;;;;;17.13;66.01;99179.44;1690581;84;21059;-85
2022/07/21 03:18:01;;;;;;;6.95;3.67;;;;;;;17.13;65.99;99182.06;1687773;85;21018;-85
2022/07/21 03:20:32;;;;;;;8.58;3.20;;;;;;;17.10;66.18;99196.22;1688715;85;21559;-82
2022/07/21 03:22:59;;;;;;;10.13;4.20;;;;;;;17.03;66.31;99189.11;1689922;85;21530;-83
2022/07/21 03:25:27;;;;;;;9.00;3.42;;;;;;;17.00;67.44;99193.66;1645747;85;21479;-83
2022/07/21 03:27:54;;;;;;;10.15;3.72;;;;;;;17.03;65.55;99198.31;1699008;84;21066;-84
2022/07/21 03:30:21;;;;;;;5.33;3.22;;;;;;;17.01;66.91;99205.41;1686147;85;20991;-84
2022/07/21 03:32:50;;;;;;;7.33;3.20;;;;;;;17.03;66.44;99200.06;1690139;85;21385;-82
2022/07/21 03:35:17;;;;;;;4.62;2.87;;;;;;;17.02;66.31;99197.91;1690813;85;21062;-83
2022/07/21 03:37:50;;;;;;;6.53;3.52;;;;;;;17.06;66.55;99203.86;1690759;85;21011;-83
2022/07/21 03:40:22;;;;;;;9.50;3.95;;;;;;;17.11;66.02;99208.44;1690123;85;21057;-83
2022/07/21 03:42:50;;;;;;;6.40;3.40;;;;;;;17.17;65.33;99203.31;1690387;85;21074;-83
2022/07/21 03:45:17;;;;;;;11.88;3.55;;;;;;;17.21;65.79;99200.47;1691935;83;21074;-83
2022/07/21 03:47:44;;;;;;;9.70;3.55;;;;;;;17.24;67.14;99204.24;1714270;83;21014;-84
2022/07/21 03:50:12;;;;;;;6.37;3.22;;;;;;;17.27;65.63;99194.91;1696875;83;21511;-83
2022/07/21 03:52:40;;;;;;;9.83;3.35;;;;;;;17.32;65.58;99198.60;1711519;83;21004;-83
2022/07/21 03:55:08;;;;;;;6.85;3.45;;;;;;;17.40;66.90;99206.09;1717556;83;21023;-83
2022/07/21 03:57:46;;;;;;;8.93;3.40;;;;;;;17.45;65.40;99211.98;1718003;83;21082;-83
2022/07/21 04:00:18;;;;;;;8.50;3.30;;;;;;;17.48;66.09;99214.43;1716825;83;21092;-83
2022/07/21 04:02:46;;;;;;;8.03;2.90;;;;;;;17.58;65.81;99216.97;1720111;83;21037;-84
2022/07/21 04:05:14;;;;;;;6.15;3.12;;;;;;;17.66;65.56;99216.57;1719569;83;21013;-84
2022/07/21 04:07:43;;;;;;;9.45;3.12;;;;;;;17.75;65.95;99220.04;1720065;83;21030;-84
2022/07/21 04:10:13;;;;;;;6.75;3.12;;;;;;;17.80;65.80;99216.69;1717067;83;21022;-83
2022/07/21 04:12:40;;;;;;;7.47;3.30;;;;;;;17.85;65.76;99221.28;1719473;83;21082;-83
2022/07/21 04:15:09;;;;;;;5.60;3.10;;;;;;;17.90;65.12;99211.82;1717577;83;21050;-84
2022/07/21 04:17:37;;;;;;;5.47;3.20;;;;;;;17.92;65.05;99215.70;1719764;83;20986;-84
2022/07/21 04:20:06;;;;;;;19.77;4.28;;;;;;;17.95;65.46;99220.33;1723289;83;20972;-84
2022/07/21 04:22:33;;;;;;;6.25;3.45;;;;;;;18.00;65.12;99215.66;1704461;84;21004;-83
2022/07/21 04:25:00;;;;;;;7.08;4.25;;;;;;;18.05;64.56;99216.27;1716294;84;21058;-83
2022/07/21 04:27:27;;;;;;;10.45;4.00;;;;;;;18.07;63.97;99213.09;1719589;83;21022;-83
2022/07/21 04:29:54;;;;;;;10.32;3.90;;;;;;;18.13;64.07;99211.07;1698584;83;22239;-82
2022/07/21 04:32:21;;;;;;;7.60;3.55;;;;;;;18.21;64.19;99210.19;1719053;83;21062;-82
2022/07/21 04:34:48;;;;;;;15.35;3.77;;;;;;;18.31;64.29;99216.64;1719307;83;21061;-83
2022/07/21 04:37:15;;;;;;;8.78;3.72;;;;;;;18.41;64.22;99207.77;1716894;83;20994;-81
2022/07/21 04:39:42;;;;;;;9.35;4.15;;;;;;;18.51;64.18;99215.53;1717519;83;21042;-84
2022/07/21 04:42:08;;;;;;;8.53;3.98;;;;;;;18.61;63.64;99219.81;1719711;83;21050;-82
2022/07/21 04:44:35;;;;;;;10.00;3.85;;;;;;;18.65;63.29;99216.08;1697430;83;21015;-83
2022/07/21 04:47:01;;;;;;;13.53;5.42;;;;;;;18.70;62.59;99223.23;1712750;83;21054;-83
2022/07/21 04:49:28;;;;;;;11.75;4.45;;;;;;;18.72;62.92;99217.44;1716944;84;20990;-84
2022/07/21 04:51:55;;;;;;;11.63;3.72;;;;;;;18.79;63.06;99219.24;1717255;83;20995;-84
2022/07/21 04:54:22;;;;;;;8.05;3.50;;;;;;;18.88;62.70;99212.18;1717002;84;21072;-84
2022/07/21 04:56:49;;;;;;;10.65;3.35;;;;;;;18.96;61.92;99209.08;1716970;84;21030;-84
2022/07/21 04:59:15;;;;;;;6.87;3.10;;;;;;;19.04;62.10;99200.28;1717127;83;21050;-84
2022/07/21 05:01:42;;;;;;;11.50;4.05;;;;;;;19.13;61.61;99190.50;1717539;84;21037;-85
2022/07/21 05:04:09;;;;;;;13.65;3.83;;;;;;;19.22;61.66;99195.72;1717757;84;20975;-85
2022/07/21 05:06:35;;;;;;;6.08;3.50;;;;;;;19.29;61.57;99200.98;1717679;84;21049;-85
2022/07/21 05:09:02;;;;;;;8.03;3.50;;;;;;;19.34;61.69;99196.75;1717622;84;21085;-86
2022/07/21 05:11:29;;;;;;;9.98;3.67;;;;;;;19.38;61.11;99204.41;1714698;83;20976;-85
2022/07/21 05:13:57;;;;;;;9.03;3.60;;;;;;;19.44;61.28;99205.83;1702829;84;21057;-86
2022/07/21 05:16:23;;;;;;;10.28;3.60;;;;;;;19.53;61.27;99201.30;1694920;83;21007;-83
2022/07/21 05:18:50;;;;;;;12.13;3.62;;;;;;;19.61;60.88;99199.05;1717466;84;21022;-86
2022/07/21 05:21:17;;;;;;;6.95;3.25;;;;;;;19.70;60.44;99207.38;1717755;83;21190;-86
2022/07/21 05:23:45;;;;;;;16.93;3.80;;;;;;;19.77;60.31;99204.75;1713232;83;21530;-85
2022/07/21 05:26:13;;;;;;;8.18;3.50;;;;;;;19.83;60.24;99208.33;1707960;83;20995;-87
2022/07/21 05:28:40;;;;;;;12.53;3.80;;;;;;;19.91;60.09;99213.97;1710233;84;21063;-84
2022/07/21 05:31:08;;;;;;;11.35;3.65;;;;;;;20.00;59.88;99209.45;1717702;84;21039;-85
2022/07/21 05:33:36;;;;;;;6.87;3.60;;;;;;;20.09;59.46;99203.23;1712682;84;21038;-85
2022/07/21 05:36:04;;;;;;;8.13;3.37;;;;;;;20.20;59.44;99206.05;1714272;84;21038;-86
2022/07/21 05:38:31;;;;;;;8.73;3.90;;;;;;;20.34;59.36;99199.90;1719289;83;21255;-85
2022/07/21 05:40:59;;;;;;;7.92;3.62;;;;;;;20.42;58.77;99202.41;1718334;83;21467;-86
2022/07/21 05:43:27;;;;;;;8.90;3.58;;;;;;;20.52;58.66;99205.80;1727057;83;21052;-85
2022/07/21 05:45:54;;;;;;;9.75;3.10;;;;;;;20.62;58.36;99206.92;1719705;83;21138;-85
2022/07/21 05:48:21;;;;;;;10.05;3.27;;;;;;;20.71;58.10;99210.30;1709910;84;21078;-84
2022/07/21 05:50:47;;;;;;;10.60;3.40;;;;;;;20.81;57.94;99207.87;1697050;83;21068;-86
2022/07/21 05:53:14;;;;;;;9.45;3.37;;;;;;;20.89;57.56;99199.00;1701761;84;20983;-85
2022/07/21 05:55:42;;;;;;;9.30;3.22;;;;;;;20.98;57.34;99196.20;1701217;82;21051;-86
2022/07/21 05:58:08;;;;;;;7.95;3.20;;;;;;;21.08;57.13;99196.45;1691467;83;21063;-87
2022/07/21 06:00:35;;;;;;;11.90;3.20;;;;;;;21.15;56.95;99201.22;1691984;83;21038;-86
2022/07/21 06:03:01;;;;;;;17.10;5.03;;;;;;;21.26;56.83;99201.80;1691487;85;21062;-86
2022/07/21 06:05:28;;;;;;;9.68;3.40;;;;;;;21.37;56.55;99198.45;1691515;84;21023;-85
2022/07/21 06:07:55;;;;;;;6.55;3.35;;;;;;;21.50;56.00;99191.38;1691212;84;21030;-86
2022/07/21 06:10:21;;;;;;;12.98;3.90;;;;;;;21.58;55.74;99189.54;1680157;85;21008;-85
2022/07/21 06:12:48;;;;;;;10.43;3.58;;;;;;;21.66;55.72;99192.50;1687766;83;21037;-86
2022/07/21 06:15:15;;;;;;;7.60;3.67;;;;;;;21.76;55.59;99192.22;1691360;85;21002;-86
2022/07/21 06:18:03;;;;;;;6.85;3.25;;;;;;;21.89;55.39;99193.55;1697977;83;21082;-83
2022/07/21 06:20:30;;;;;;;7.50;3.00;;;;;;;22.01;54.75;99195.33;1670924;85;21055;-82
2022/07/21 06:22:57;;;;;;;6.83;3.10;;;;;;;22.14;54.63;99186.50;1668011;85;21097;-83
2022/07/21 06:25:23;;;;;;;6.60;2.83;;;;;;;22.23;54.52;99183.20;1665504;85;21042;-82
2022/07/21 06:27:50;;;;;;;7.20;3.25;;;;;;;22.41;54.27;99182.39;1666552;85;21183;-86
2022/07/21 06:30:16;;;;;;;6.53;3.10;;;;;;;22.54;53.78;99184.52;1683139;85;21030;-83
2022/07/21 06:32:43;;;;;;;8.90;3.15;;;;;;;22.64;53.37;99184.20;1674999;85;21045;-84
2022/07/21 06:35:10;;;;;;;6.85;3.02;;;;;;;22.70;52.73;99181.58;1664365;85;21032;-84
2022/07/21 06:37:36;;;;;;;10.68;3.20;;;;;;;22.79;52.83;99175.58;1662569;85;21097;-88
2022/07/21 06:40:05;;;;;;;12.20;3.02;;;;;;;22.92;52.23;99177.31;1670472;85;21033;-88
2022/07/21 06:42:33;;;;;;;6.15;3.02;;;;;;;22.97;50.99;99174.69;1634624;85;21088;-88
2022/07/21 06:45:00;;;;;;;7.00;3.77;;;;;;;23.06;51.17;99174.52;1667816;86;21074;-87
2022/07/21 06:47:26;;;;;;;8.20;2.75;;;;;;;23.16;51.25;99166.72;1664293;85;21079;-86
2022/07/21 06:49:53;;;;;;;8.23;3.40;;;;;;;23.28;50.64;99169.75;1680487;82;21076;-89
2022/07/21 06:52:20;;;;;;;8.90;2.95;;;;;;;23.35;50.42;99173.61;1687466;85;21067;-87
2022/07/21 06:54:47;;;;;;;6.37;2.87;;;;;;;23.43;50.25;99166.39;1693456;83;20982;-88
2022/07/21 06:57:13;;;;;;;8.75;2.60;;;;;;;23.53;50.12;99163.37;1687489;83;21023;-86
2022/07/21 06:59:40;;;;;;;8.28;3.40;;;;;;;23.62;49.92;99160.02;1682987;83;21089;-88
2022/07/21 07:02:07;;;;;;;7.25;2.80;;;;;;;23.71;49.70;99161.59;1687974;85;20969;-87
2022/07/21 07:04:39;;;;;;;19.65;3.40;;;;;;;23.82;49.44;99168.27;1683059;84;21863;-87
2022/07/21 07:07:07;;;;;;;9.58;3.00;;;;;;;23.99;49.26;99163.80;1663961;85;21061;-87
2022/07/21 07:09:36;;;;;;;10.28;3.00;;;;;;;24.12;48.48;99164.14;1634532;82;21130;-86
2022/07/21 07:12:05;;;;;;;9.48;3.00;;;;;;;24.23;48.10;99161.45;1648148;87;21059;-87
2022/07/21 07:14:35;;;;;;;4.35;2.52;;;;;;;24.34;48.29;99157.45;1648926;85;21586;-86
2022/07/21 07:17:03;;;;;;;6.62;2.80;;;;;;;24.48;47.66;99156.81;1646213;87;21024;-86
2022/07/21 07:19:31;;;;;;;7.20;3.00;;;;;;;24.55;47.58;99159.34;1671041;86;21112;-87
2022/07/21 07:21:59;;;;;;;7.00;2.80;;;;;;;24.64;47.47;99155.94;1674455;84;21023;-87
2022/07/21 07:24:26;;;;;;;9.50;3.17;;;;;;;24.73;46.96;99150.33;1670981;85;21021;-87
2022/07/21 07:26:53;;;;;;;10.65;2.60;;;;;;;24.80;47.06;99153.69;1671244;85;21066;-87
2022/07/21 07:29:19;;;;;;;7.17;2.55;;;;;;;24.90;46.99;99152.44;1661270;86;21002;-87
2022/07/21 07:31:46;;;;;;;11.95;3.42;;;;;;;25.00;46.99;99152.02;1671748;86;21059;-87
2022/07/21 07:34:13;;;;;;;5.30;2.90;;;;;;;25.13;46.51;99151.84;1675222;86;21090;-88
2022/07/21 07:36:40;;;;;;;7.92;3.27;;;;;;;25.28;45.56;99155.53;1660631;86;21051;-86
2022/07/21 07:39:07;;;;;;;6.05;2.92;;;;;;;25.34;45.18;99151.02;1661837;86;21098;-88
2022/07/21 07:41:35;;;;;;;10.78;3.27;;;;;;;25.47;45.85;99141.01;1655314;86;21056;-86
2022/07/21 07:44:08;;;;;;;8.88;2.70;;;;;;;25.64;45.71;99148.02;1652919;83;21011;-86
2022/07/21 07:46:37;;;;;;;5.62;2.65;;;;;;;25.75;45.27;99146.59;1670130;86;21070;-87
2022/07/21 07:49:04;;;;;;;5.08;3.10;;;;;;;25.90;45.30;99137.73;1641528;86;21113;-85
2022/07/21 07:51:30;;;;;;;5.70;2.83;;;;;;;26.06;44.80;99143.92;1648325;86;22206;-87
2022/07/21 07:53:57;;;;;;;9.25;2.60;;;;;;;26.17;44.77;99139.81;1670532;86;21095;-85
2022/07/21 07:56:37;;;;;;;7.50;3.20;;;;;;;26.27;43.80;99137.17;1670715;86;21014;-86
2022/07/21 07:59:10;;;;;;;4.78;2.65;;;;;;;26.41;43.88;99138.09;1645997;86;21137;-87
2022/07/21 08:01:37;;;;;;;12.47;3.05;;;;;;;26.58;43.46;99140.11;1672553;85;21046;-86
2022/07/21 08:04:04;;;;;;;5.20;2.80;;;;;;;26.72;43.35;99133.99;1666661;85;21132;-86
2022/07/21 08:06:30;;;;;;;8.30;2.58;;;;;;;26.85;43.20;99130.55;1670414;86;21023;-87
2022/07/21 08:08:57;;;;;;;4.25;2.52;;;;;;;26.97;42.14;99132.08;1709428;80;21066;-88
2022/07/21 08:11:28;;;;;;;7.80;2.37;;;;;;;27.07;42.10;99134.73;1753041;81;21032;-88
2022/07/21 08:13:57;;;;;;;4.80;2.85;;;;;;;27.21;41.81;99133.95;1768911;80;21121;-89
2022/07/21 08:16:25;;;;;;;11.40;2.58;;;;;;;27.37;40.60;99133.70;1695184;82;21058;-88
2022/07/21 08:18:54;;;;;;;6.55;2.80;;;;;;;27.57;39.23;99132.31;1741706;82;21093;-87
2022/07/21 08:21:29;;;;;;;7.03;2.83;;;;;;;27.63;37.89;99126.39;1718757;83;21042;-87
2022/07/21 08:23:56;;;;;;;5.90;2.50;;;;;;;27.73;39.25;99126.34;1708845;84;21134;-89
2022/07/21 08:26:25;;;;;;;4.28;2.40;;;;;;;27.84;36.93;99126.16;1714533;82;21739;-87
2022/07/21 08:28:58;;;;;;;6.53;2.83;;;;;;;27.88;38.26;99123.58;1699962;83;21058;-89
2022/07/21 08:31:28;;;;;;;9.13;2.85;;;;;;;27.93;38.24;99117.30;1666458;84;21333;-89
2022/07/21 08:33:58;;;;;;;7.20;3.33;;;;;;;27.99;37.64;99109.66;1712473;84;21050;-89
2022/07/21 08:36:29;;;;;;;5.97;3.00;;;;;;;28.21;37.85;99115.08;1660759;84;21330;-90
2022/07/21 08:39:03;;;;;;;4.40;2.55;;;;;;;28.32;37.67;99114.87;1623202;85;21113;-90
2022/07/21 08:41:35;;;;;;;6.70;3.00;;;;;;;28.40;37.50;99114.11;1697625;82;21144;-89
2022/07/21 08:44:03;;;;;;;4.70;2.60;;;;;;;28.43;36.59;99110.64;1714276;82;20966;-89
2022/07/21 08:46:33;;;;;;;6.67;3.00;;;;;;;28.51;37.13;99105.88;1696134;84;21075;-89
2022/07/21 08:49:03;;;;;;;5.35;2.62;;;;;;;28.63;37.16;99097.98;1648899;85;21035;-88
2022/07/21 08:51:35;;;;;;;5.37;2.40;;;;;;;28.76;36.99;99103.76;1673908;84;21115;-88
2022/07/21 08:54:04;;;;;;;7.92;2.70;;;;;;;28.87;36.36;99100.02;1705510;84;21569;-88
2022/07/21 08:56:31;;;;;;;4.90;2.98;;;;;;;28.95;36.25;99102.75;1739825;82;20968;-89
2022/07/21 08:59:00;;;;;;;7.17;3.30;;;;;;;29.06;35.08;99101.64;1743676;81;20970;-89
2022/07/21 09:01:28;;;;;;;6.87;4.08;;;;;;;29.11;35.07;99104.73;1646498;86;21039;-88
2022/07/21 09:04:27;;;;;;;4.95;2.77;;;;;;;29.21;34.77;99099.27;1692435;84;21074;-89
2022/07/21 09:07:02;;;;;;;6.05;2.90;;;;;;;29.24;33.69;99096.27;1676545;82;21048;-89
2022/07/21 09:09:32;;;;;;;4.58;2.60;;;;;;;29.24;33.42;99090.91;1683103;83;21008;-88
2022/07/21 09:12:02;;;;;;;9.53;2.62;;;;;;;29.25;32.94;99093.11;1696731;83;20995;-89
2022/07/21 09:14:33;;;;;;;5.17;2.80;;;;;;;29.35;34.32;99096.00;1732754;83;20987;-89
2022/07/21 09:17:06;;;;;;;6.62;2.45;;;;;;;29.49;34.40;99090.55;1707172;83;21526;-88
2022/07/21 09:19:38;;;;;;;;;;;;;;;29.62;34.14;99090.60;1697679;84;21063;-89
2022/07/21 09:22:14;;;;;;;6.03;3.02;;;;;;;29.74;33.41;99086.66;1727138;83;20152;-88
2022/07/21 09:24:51;;;;;;;5.72;2.72;;;;;;;29.86;31.90;99085.87;1705608;83;21055;-89
2022/07/21 09:27:23;;;;;;;5.05;2.65;;;;;;;29.85;31.96;99076.16;1726040;83;21049;-89
2022/07/21 09:29:58;;;;;;;6.55;3.02;;;;;;;29.97;32.97;99072.69;1699873;83;21111;-90
2022/07/21 09:32:32;;;;;;;5.08;2.50;;;;;;;30.13;33.26;99074.88;1676368;86;21086;-90
2022/07/21 09:35:13;;;;;;;4.95;2.50;;;;;;;30.30;32.66;99063.73;1642072;85;21138;-89
2022/07/21 09:37:42;;;;;;;4.70;2.42;;;;;;;30.43;32.40;99059.71;1678040;85;21121;-89
2022/07/21 09:40:14;;;;;;;6.35;2.80;;;;;;;30.55;32.55;99058.37;1634182;86;21137;-88
2022/07/21 09:42:46;;;;;;;6.62;2.98;;;;;;;30.61;32.08;99061.72;1705940;83;21070;-88
2022/07/21 09:45:17;;;;;;;4.87;2.80;;;;;;;30.67;32.20;99066.41;1710066;82;21048;-88
2022/07/21 09:47:45;;;;;;;5.90;2.62;;;;;;;30.75;31.94;99064.73;1680843;84;21027;-88
2022/07/21 09:50:15;;;;;;;5.75;2.52;;;;;;;30.83;31.71;99060.70;1686669;85;21088;-87
2022/07/21 09:52:45;;;;;;;6.47;2.98;;;;;;;30.88;30.95;99061.05;1734423;83;20943;-88
2022/07/21 09:55:17;;;;;;;6.45;3.00;;;;;;;30.91;31.11;99057.52;1736267;83;21038;-88
2022/07/21 09:57:45;;;;;;;9.95;2.90;;;;;;;30.98;31.12;99055.02;1677292;83;21075;-86
2022/07/21 10:00:16;;;;;;;9.18;3.10;;;;;;;31.08;30.88;99052.98;1727412;83;21019;-86
2022/07/21 10:02:44;;;;;;;6.65;3.00;;;;;;;31.12;30.45;99055.65;1731745;83;21518;-86
2022/07/21 10:05:19;;;;;;;6.90;3.10;;;;;;;31.19;30.05;99050.92;1732879;83;20983;-87
2022/07/21 10:07:49;;;;;;;6.95;2.90;;;;;;;31.18;30.12;99043.87;1734304;81;21043;-87
2022/07/21 10:10:19;;;;;;;8.58;2.83;;;;;;;31.24;30.10;99044.55;1710931;82;32185;-87
2022/07/21 10:12:46;;;;;;;7.70;2.98;;;;;;;31.29;30.32;99043.51;1736810;81;21077;-88
2022/07/21 10:15:12;;;;;;;9.08;2.95;;;;;;;31.41;30.26;99041.28;1743501;81;21046;-87
2022/07/21 10:17:40;;;;;;;10.40;2.80;;;;;;;31.52;30.25;99036.91;1746606;81;21030;-87
2022/07/21 10:20:15;;;;;;;4.92;2.72;;;;;;;31.68;30.24;99037.34;1738767;81;20951;-87
2022/07/21 10:23:20;;;;;;;6.92;3.12;;;;;;;31.83;29.72;99030.19;1733974;82;21016;-88
2022/07/21 10:25:48;;;;;;;6.53;2.98;;;;;;;31.96;29.41;99032.82;1736643;81;20978;-88
2022/07/21 10:28:22;;;;;;;6.80;3.60;;;;;;;32.00;28.97;99032.80;1735290;81;20975;-88
2022/07/21 10:30:51;;;;;;;10.20;3.27;;;;;;;32.03;28.78;99029.28;1676770;84;21023;-87
2022/07/21 10:33:21;;;;;;;8.45;3.25;;;;;;;32.09;28.74;99021.84;1700632;84;21026;-88
2022/07/21 10:35:51;;;;;;;9.40;3.00;;;;;;;32.05;28.60;99017.84;1737671;82;21089;-87
2022/07/21 10:38:28;;;;;;;8.75;3.12;;;;;;;32.08;28.50;99027.39;1735962;82;21502;-88
2022/07/21 10:40:56;;;;;;;8.68;3.22;;;;;;;32.07;28.54;99022.53;1708757;82;21034;-88
2022/07/21 10:43:31;;;;;;;6.55;3.10;;;;;;;32.05;27.02;99021.02;1720560;82;21011;-87
2022/07/21 10:45:59;;;;;;;11.68;3.33;;;;;;;32.06;28.09;99009.26;1701820;82;21019;-86
2022/07/21 10:48:48;;;;;;;7.40;3.02;;;;;;;32.01;28.39;99004.91;1709228;82;21054;-86
2022/07/21 10:51:16;;;;;;;5.62;2.72;;;;;;;32.06;27.09;99008.74;1708644;82;21574;-86
2022/07/21 10:53:45;;;;;;;8.10;3.52;;;;;;;32.19;27.82;99000.58;1687359;84;21137;-87
2022/07/21 10:56:31;;;;;;;8.00;3.02;;;;;;;32.26;27.78;99001.02;1685155;84;21070;-87
2022/07/21 10:58:59;;;;;;;9.05;2.80;;;;;;;32.38;27.95;99001.44;1674190;85;21038;-86
2022/07/21 11:01:25;;;;;;;8.10;3.02;;;;;;;32.40;27.20;98999.91;1682074;84;21083;-87
2022/07/21 11:04:20;;;;;;;5.58;2.75;;;;;;;32.41;26.68;98986.29;1669358;84;21078;-87
2022/07/21 11:06:46;;;;;;;7.58;3.40;;;;;;;32.44;27.39;98990.45;1669584;85;21088;-84
2022/07/21 11:09:17;;;;;;;9.43;3.15;;;;;;;32.59;27.02;98987.81;1653959;84;21094;-87
2022/07/21 11:12:06;;;;;;;5.90;3.20;;;;;;;32.83;27.41;98985.41;1707865;84;21027;-87
2022/07/21 11:14:52;;;;;;;6.90;3.33;;;;;;;33.01;27.43;98984.53;1743617;79;20979;-89
2022/07/21 11:17:31;;;;;;;7.28;3.10;;;;;;;33.23;27.34;98976.05;1724148;82;21012;-86
2022/07/21 11:19:59;;;;;;;6.10;2.90;;;;;;;33.47;27.08;98977.58;1753389;81;20978;-86
2022/07/21 11:22:29;;;;;;;5.97;3.05;;;;;;;33.57;27.07;98968.38;1740004;81;21033;-89
2022/07/21 11:25:04;;;;;;;8.05;3.35;;;;;;;33.70;27.08;98968.53;1738920;81;21006;-87
2022/07/21 11:27:35;;;;;;;10.23;3.30;;;;;;;33.82;26.11;98972.91;1732534;81;21015;-86
2022/07/21 11:30:07;;;;;;;8.10;2.80;;;;;;;33.90;26.42;98974.13;1730382;81;21006;-85
2022/07/21 11:32:34;;;;;;;5.53;2.85;;;;;;;34.02;26.50;98965.88;1753830;81;21025;-89
2022/07/21 11:35:06;;;;;;;5.85;2.72;;;;;;;34.16;26.41;98968.20;1688855;81;21054;-87
2022/07/21 11:37:38;;;;;;;;;;;;;;;34.30;25.86;98971.00;1715731;82;21001;-89
2022/07/21 11:40:18;;;;;;;11.53;2.98;;;;;;;34.39;23.21;98972.02;1691916;84;20171;-89
2022/07/21 11:42:53;;;;;;;7.37;2.80;;;;;;;34.41;24.83;98967.78;1699969;79;21220;-85